sensor_id;sensor_type;location;lat;lon;timestamp;temperature;humidity
61641;HTU21D;62201;49.966;8.342;2023-07-13T00:01:58;20.37;54.76
61641;HTU21D;62201;49.966;8.342;2023-07-13T00:04:24;20.37;54.81
61641;HTU21D;62201;49.966;8.342;2023-07-13T00:06:50;20.44;54.39
61641;HTU21D;62201;49.966;8.342;2023-07-13T00:09:17;20.49;54.07
61641;HTU21D;62201;49.966;8.342;2023-07-13T00:11:44;20.50;53.99
61641;HTU21D;62201;49.966;8.342;2023-07-13T00:14:10;20.55;53.57
61641;HTU21D;62201;49.966;8.342;2023-07-13T00:16:37;20.49;54.12
61641;HTU21D;62201;49.966;8.342;2023-07-13T00:19:04;20.47;54.29
61641;HTU21D;62201;49.966;8.342;2023-07-13T00:21:30;20.44;54.76
61641;HTU21D;62201;49.966;8.342;2023-07-13T00:23:55;20.39;54.59
61641;HTU21D;62201;49.966;8.342;2023-07-13T00:26:21;20.35;55.18
61641;HTU21D;62201;49.966;8.342;2023-07-13T00:28:47;20.22;55.99
61641;HTU21D;62201;49.966;8.342;2023-07-13T00:31:13;20.15;57.22
61641;HTU21D;62201;49.966;8.342;2023-07-13T00:33:40;20.05;57.90
61641;HTU21D;62201;49.966;8.342;2023-07-13T00:36:06;20.02;57.97
61641;HTU21D;62201;49.966;8.342;2023-07-13T00:38:31;19.98;58.72
61641;HTU21D;62201;49.966;8.342;2023-07-13T00:40:57;19.89;60.63
61641;HTU21D;62201;49.966;8.342;2023-07-13T00:43:25;19.76;62.95
61641;HTU21D;62201;49.966;8.342;2023-07-13T00:48:19;19.60;64.24
61641;HTU21D;62201;49.966;8.342;2023-07-13T00:50:48;19.50;64.36
61641;HTU21D;62201;49.966;8.342;2023-07-13T00:53:14;19.44;64.59
61641;HTU21D;62201;49.966;8.342;2023-07-13T00:55:40;19.40;65.75
61641;HTU21D;62201;49.966;8.342;2023-07-13T00:58:05;19.36;65.34
61641;HTU21D;62201;49.966;8.342;2023-07-13T01:00:34;19.39;64.38
61641;HTU21D;62201;49.966;8.342;2023-07-13T01:02:59;19.39;63.91
61641;HTU21D;62201;49.966;8.342;2023-07-13T01:05:26;19.36;64.45
61641;HTU21D;62201;49.966;8.342;2023-07-13T01:07:52;19.39;62.93
61641;HTU21D;62201;49.966;8.342;2023-07-13T01:10:22;19.41;63.15
61641;HTU21D;62201;49.966;8.342;2023-07-13T01:12:47;19.33;64.56
61641;HTU21D;62201;49.966;8.342;2023-07-13T01:15:41;19.26;64.80
61641;HTU21D;62201;49.966;8.342;2023-07-13T01:18:15;19.21;65.47
61641;HTU21D;62201;49.966;8.342;2023-07-13T01:20:50;19.21;64.15
61641;HTU21D;62201;49.966;8.342;2023-07-13T01:23:15;19.21;64.16
61641;HTU21D;62201;49.966;8.342;2023-07-13T01:25:41;19.18;64.01
61641;HTU21D;62201;49.966;8.342;2023-07-13T01:28:08;19.16;64.10
61641;HTU21D;62201;49.966;8.342;2023-07-13T01:30:36;19.16;63.99
61641;HTU21D;62201;49.966;8.342;2023-07-13T01:33:03;19.13;64.23
61641;HTU21D;62201;49.966;8.342;2023-07-13T01:35:29;19.12;64.53
61641;HTU21D;62201;49.966;8.342;2023-07-13T01:37:54;19.11;65.28
61641;HTU21D;62201;49.966;8.342;2023-07-13T01:40:20;19.00;67.53
61641;HTU21D;62201;49.966;8.342;2023-07-13T01:42:46;18.89;69.29
61641;HTU21D;62201;49.966;8.342;2023-07-13T01:45:11;18.86;68.17
61641;HTU21D;62201;49.966;8.342;2023-07-13T01:47:36;18.83;68.04
61641;HTU21D;62201;49.966;8.342;2023-07-13T01:50:02;18.83;66.85
61641;HTU21D;62201;49.966;8.342;2023-07-13T01:52:28;18.78;67.07
61641;HTU21D;62201;49.966;8.342;2023-07-13T01:54:53;18.77;66.81
61641;HTU21D;62201;49.966;8.342;2023-07-13T01:57:19;18.77;66.31
61641;HTU21D;62201;49.966;8.342;2023-07-13T01:59:44;18.74;66.24
61641;HTU21D;62201;49.966;8.342;2023-07-13T02:02:09;18.72;66.16
61641;HTU21D;62201;49.966;8.342;2023-07-13T02:04:36;18.70;65.98
61641;HTU21D;62201;49.966;8.342;2023-07-13T02:07:02;18.67;66.23
61641;HTU21D;62201;49.966;8.342;2023-07-13T02:09:27;18.69;67.49
61641;HTU21D;62201;49.966;8.342;2023-07-13T02:11:52;18.58;67.93
61641;HTU21D;62201;49.966;8.342;2023-07-13T02:14:18;18.50;67.70
61641;HTU21D;62201;49.966;8.342;2023-07-13T02:16:43;18.49;67.59
61641;HTU21D;62201;49.966;8.342;2023-07-13T02:19:08;18.48;67.34
61641;HTU21D;62201;49.966;8.342;2023-07-13T02:21:34;18.44;66.93
61641;HTU21D;62201;49.966;8.342;2023-07-13T02:24:00;18.40;66.91
61641;HTU21D;62201;49.966;8.342;2023-07-13T02:26:26;18.37;66.82
61641;HTU21D;62201;49.966;8.342;2023-07-13T02:28:51;18.34;67.31
61641;HTU21D;62201;49.966;8.342;2023-07-13T02:31:17;18.28;67.55
61641;HTU21D;62201;49.966;8.342;2023-07-13T02:33:43;18.23;67.74
61641;HTU21D;62201;49.966;8.342;2023-07-13T02:36:08;18.21;68.08
61641;HTU21D;62201;49.966;8.342;2023-07-13T02:38:34;18.17;68.48
61641;HTU21D;62201;49.966;8.342;2023-07-13T02:41:04;18.11;69.94
61641;HTU21D;62201;49.966;8.342;2023-07-13T02:43:30;18.08;69.98
61641;HTU21D;62201;49.966;8.342;2023-07-13T02:45:55;18.06;69.54
61641;HTU21D;62201;49.966;8.342;2023-07-13T02:48:21;18.02;69.53
61641;HTU21D;62201;49.966;8.342;2023-07-13T02:50:46;18.02;68.88
61641;HTU21D;62201;49.966;8.342;2023-07-13T02:53:12;17.95;68.78
61641;HTU21D;62201;49.966;8.342;2023-07-13T02:55:37;17.88;68.89
61641;HTU21D;62201;49.966;8.342;2023-07-13T02:58:03;17.87;68.58
61641;HTU21D;62201;49.966;8.342;2023-07-13T03:00:28;17.81;68.78
61641;HTU21D;62201;49.966;8.342;2023-07-13T03:02:54;17.81;68.48
61641;HTU21D;62201;49.966;8.342;2023-07-13T03:05:22;17.78;68.56
61641;HTU21D;62201;49.966;8.342;2023-07-13T03:07:47;17.79;68.75
61641;HTU21D;62201;49.966;8.342;2023-07-13T03:10:13;17.79;69.24
61641;HTU21D;62201;49.966;8.342;2023-07-13T03:12:38;17.75;69.11
61641;HTU21D;62201;49.966;8.342;2023-07-13T03:15:04;17.77;68.21
61641;HTU21D;62201;49.966;8.342;2023-07-13T03:17:29;17.79;67.43
61641;HTU21D;62201;49.966;8.342;2023-07-13T03:19:55;17.83;67.02
61641;HTU21D;62201;49.966;8.342;2023-07-13T03:22:20;17.87;66.21
61641;HTU21D;62201;49.966;8.342;2023-07-13T03:24:46;17.87;66.05
61641;HTU21D;62201;49.966;8.342;2023-07-13T03:27:11;17.82;66.34
61641;HTU21D;62201;49.966;8.342;2023-07-13T03:29:37;17.83;66.09
61641;HTU21D;62201;49.966;8.342;2023-07-13T03:32:02;17.83;65.32
61641;HTU21D;62201;49.966;8.342;2023-07-13T03:34:29;17.84;65.38
61641;HTU21D;62201;49.966;8.342;2023-07-13T03:36:55;17.83;65.48
61641;HTU21D;62201;49.966;8.342;2023-07-13T03:39:20;17.82;65.47
61641;HTU21D;62201;49.966;8.342;2023-07-13T03:41:46;17.83;65.47
61641;HTU21D;62201;49.966;8.342;2023-07-13T03:44:11;17.82;65.49
61641;HTU21D;62201;49.966;8.342;2023-07-13T03:46:37;17.78;66.04
61641;HTU21D;62201;49.966;8.342;2023-07-13T03:49:04;17.75;66.11
61641;HTU21D;62201;49.966;8.342;2023-07-13T03:51:29;17.74;66.73
61641;HTU21D;62201;49.966;8.342;2023-07-13T03:53:55;17.68;69.37
61641;HTU21D;62201;49.966;8.342;2023-07-13T03:56:20;17.54;74.36
61641;HTU21D;62201;49.966;8.342;2023-07-13T03:58:47;17.38;77.36
61641;HTU21D;62201;49.966;8.342;2023-07-13T04:01:14;17.28;75.97
61641;HTU21D;62201;49.966;8.342;2023-07-13T04:03:41;17.25;77.45
61641;HTU21D;62201;49.966;8.342;2023-07-13T04:06:08;17.21;79.68
61641;HTU21D;62201;49.966;8.342;2023-07-13T04:08:40;17.15;81.10
61641;HTU21D;62201;49.966;8.342;2023-07-13T04:11:06;17.05;82.41
61641;HTU21D;62201;49.966;8.342;2023-07-13T04:13:32;17.02;84.70
61641;HTU21D;62201;49.966;8.342;2023-07-13T04:15:57;17.09;84.93
61641;HTU21D;62201;49.966;8.342;2023-07-13T04:18:22;17.02;85.58
61641;HTU21D;62201;49.966;8.342;2023-07-13T04:20:49;17.00;85.64
61641;HTU21D;62201;49.966;8.342;2023-07-13T04:23:15;17.01;84.58
61641;HTU21D;62201;49.966;8.342;2023-07-13T04:25:45;17.10;83.79
61641;HTU21D;62201;49.966;8.342;2023-07-13T04:28:11;17.21;81.48
61641;HTU21D;62201;49.966;8.342;2023-07-13T04:30:36;17.33;78.83
61641;HTU21D;62201;49.966;8.342;2023-07-13T04:33:01;17.47;77.24
61641;HTU21D;62201;49.966;8.342;2023-07-13T04:35:27;17.54;75.73
61641;HTU21D;62201;49.966;8.342;2023-07-13T04:37:52;17.64;75.25
61641;HTU21D;62201;49.966;8.342;2023-07-13T04:40:18;17.74;74.81
61641;HTU21D;62201;49.966;8.342;2023-07-13T04:42:45;17.81;73.45
61641;HTU21D;62201;49.966;8.342;2023-07-13T04:45:11;17.87;71.42
61641;HTU21D;62201;49.966;8.342;2023-07-13T04:47:37;17.89;71.67
61641;HTU21D;62201;49.966;8.342;2023-07-13T04:50:02;17.89;71.56
61641;HTU21D;62201;49.966;8.342;2023-07-13T04:52:28;17.92;71.67
61641;HTU21D;62201;49.966;8.342;2023-07-13T04:54:53;17.92;72.04
61641;HTU21D;62201;49.966;8.342;2023-07-13T04:57:19;17.88;72.88
61641;HTU21D;62201;49.966;8.342;2023-07-13T04:59:44;17.91;72.63
61641;HTU21D;62201;49.966;8.342;2023-07-13T05:02:10;17.96;71.80
61641;HTU21D;62201;49.966;8.342;2023-07-13T05:04:35;18.02;70.84
61641;HTU21D;62201;49.966;8.342;2023-07-13T05:07:00;18.08;70.80
61641;HTU21D;62201;49.966;8.342;2023-07-13T05:09:26;18.17;70.41
61641;HTU21D;62201;49.966;8.342;2023-07-13T05:11:52;18.27;69.45
61641;HTU21D;62201;49.966;8.342;2023-07-13T05:14:17;18.42;68.42
61641;HTU21D;62201;49.966;8.342;2023-07-13T05:16:43;18.49;67.52
61641;HTU21D;62201;49.966;8.342;2023-07-13T05:19:09;18.64;65.43
61641;HTU21D;62201;49.966;8.342;2023-07-13T05:21:34;18.82;65.61
61641;HTU21D;62201;49.966;8.342;2023-07-13T05:24:00;18.92;63.38
61641;HTU21D;62201;49.966;8.342;2023-07-13T05:26:25;19.05;63.67
61641;HTU21D;62201;49.966;8.342;2023-07-13T05:28:50;19.14;61.98
61641;HTU21D;62201;49.966;8.342;2023-07-13T05:31:16;19.14;61.90
61641;HTU21D;62201;49.966;8.342;2023-07-13T05:33:41;19.23;61.74
61641;HTU21D;62201;49.966;8.342;2023-07-13T05:36:07;19.35;61.11
61641;HTU21D;62201;49.966;8.342;2023-07-13T05:38:33;19.45;60.57
61641;HTU21D;62201;49.966;8.342;2023-07-13T05:40:58;19.57;59.16
61641;HTU21D;62201;49.966;8.342;2023-07-13T05:43:24;19.61;58.81
61641;HTU21D;62201;49.966;8.342;2023-07-13T05:45:55;19.71;58.72
61641;HTU21D;62201;49.966;8.342;2023-07-13T05:48:20;19.76;57.42
61641;HTU21D;62201;49.966;8.342;2023-07-13T05:50:46;19.83;56.96
61641;HTU21D;62201;49.966;8.342;2023-07-13T05:53:12;19.97;56.90
61641;HTU21D;62201;49.966;8.342;2023-07-13T05:55:44;20.04;56.29
61641;HTU21D;62201;49.966;8.342;2023-07-13T05:58:11;20.09;55.45
61641;HTU21D;62201;49.966;8.342;2023-07-13T06:00:36;20.16;55.13
61641;HTU21D;62201;49.966;8.342;2023-07-13T06:03:01;20.26;54.75
61641;HTU21D;62201;49.966;8.342;2023-07-13T06:05:27;20.32;53.92
61641;HTU21D;62201;49.966;8.342;2023-07-13T06:07:54;20.37;53.89
61641;HTU21D;62201;49.966;8.342;2023-07-13T06:10:19;20.41;52.85
61641;HTU21D;62201;49.966;8.342;2023-07-13T06:12:45;20.40;53.27
61641;HTU21D;62201;49.966;8.342;2023-07-13T06:15:12;20.42;53.93
61641;HTU21D;62201;49.966;8.342;2023-07-13T06:17:37;20.45;53.76
61641;HTU21D;62201;49.966;8.342;2023-07-13T06:20:03;20.49;54.65
61641;HTU21D;62201;49.966;8.342;2023-07-13T06:22:28;20.53;54.26
61641;HTU21D;62201;49.966;8.342;2023-07-13T06:24:54;20.56;54.56
61641;HTU21D;62201;49.966;8.342;2023-07-13T06:27:19;20.56;54.19
61641;HTU21D;62201;49.966;8.342;2023-07-13T06:29:44;20.62;54.13
61641;HTU21D;62201;49.966;8.342;2023-07-13T06:32:10;20.68;53.83
61641;HTU21D;62201;49.966;8.342;2023-07-13T06:34:35;20.71;53.67
61641;HTU21D;62201;49.966;8.342;2023-07-13T06:37:01;20.75;53.92
61641;HTU21D;62201;49.966;8.342;2023-07-13T06:39:26;20.77;53.62
61641;HTU21D;62201;49.966;8.342;2023-07-13T06:41:51;20.79;52.79
61641;HTU21D;62201;49.966;8.342;2023-07-13T06:44:17;20.77;52.96
61641;HTU21D;62201;49.966;8.342;2023-07-13T06:46:42;20.95;52.99
61641;HTU21D;62201;49.966;8.342;2023-07-13T06:49:09;21.10;52.91
61641;HTU21D;62201;49.966;8.342;2023-07-13T06:51:34;21.07;52.44
61641;HTU21D;62201;49.966;8.342;2023-07-13T06:53:59;21.14;52.60
61641;HTU21D;62201;49.966;8.342;2023-07-13T06:56:25;21.28;51.57
61641;HTU21D;62201;49.966;8.342;2023-07-13T06:58:50;21.28;51.53
61641;HTU21D;62201;49.966;8.342;2023-07-13T07:01:15;21.44;51.65
61641;HTU21D;62201;49.966;8.342;2023-07-13T07:03:41;21.49;51.54
61641;HTU21D;62201;49.966;8.342;2023-07-13T07:06:14;21.49;51.78
61641;HTU21D;62201;49.966;8.342;2023-07-13T07:08:40;21.53;52.01
61641;HTU21D;62201;49.966;8.342;2023-07-13T07:11:09;21.58;51.83
61641;HTU21D;62201;49.966;8.342;2023-07-13T07:13:35;21.73;51.11
61641;HTU21D;62201;49.966;8.342;2023-07-13T07:16:00;21.70;51.56
61641;HTU21D;62201;49.966;8.342;2023-07-13T07:18:26;21.82;50.93
61641;HTU21D;62201;49.966;8.342;2023-07-13T07:20:51;22.01;50.14
61641;HTU21D;62201;49.966;8.342;2023-07-13T07:23:17;22.17;50.43
61641;HTU21D;62201;49.966;8.342;2023-07-13T07:25:44;22.12;50.54
61641;HTU21D;62201;49.966;8.342;2023-07-13T07:28:09;22.21;50.44
61641;HTU21D;62201;49.966;8.342;2023-07-13T07:30:35;22.35;49.85
61641;HTU21D;62201;49.966;8.342;2023-07-13T07:33:00;22.33;49.86
61641;HTU21D;62201;49.966;8.342;2023-07-13T07:35:26;22.34;49.85
61641;HTU21D;62201;49.966;8.342;2023-07-13T07:37:52;22.49;49.30
61641;HTU21D;62201;49.966;8.342;2023-07-13T07:40:18;22.46;48.70
61641;HTU21D;62201;49.966;8.342;2023-07-13T07:42:44;22.57;48.79
61641;HTU21D;62201;49.966;8.342;2023-07-13T07:45:09;22.79;48.58
61641;HTU21D;62201;49.966;8.342;2023-07-13T07:47:37;22.98;47.98
61641;HTU21D;62201;49.966;8.342;2023-07-13T07:50:02;22.90;47.06
61641;HTU21D;62201;49.966;8.342;2023-07-13T07:52:28;22.90;46.31
61641;HTU21D;62201;49.966;8.342;2023-07-13T07:54:53;22.87;45.57
61641;HTU21D;62201;49.966;8.342;2023-07-13T07:57:18;23.00;45.26
61641;HTU21D;62201;49.966;8.342;2023-07-13T07:59:44;23.10;44.22
61641;HTU21D;62201;49.966;8.342;2023-07-13T08:02:10;23.28;43.76
61641;HTU21D;62201;49.966;8.342;2023-07-13T08:04:36;23.31;43.06
61641;HTU21D;62201;49.966;8.342;2023-07-13T08:07:02;23.31;43.03
61641;HTU21D;62201;49.966;8.342;2023-07-13T08:09:28;23.32;42.41
61641;HTU21D;62201;49.966;8.342;2023-07-13T08:11:54;23.41;42.73
61641;HTU21D;62201;49.966;8.342;2023-07-13T08:14:20;23.53;42.42
61641;HTU21D;62201;49.966;8.342;2023-07-13T08:16:45;23.46;42.06
61641;HTU21D;62201;49.966;8.342;2023-07-13T08:19:11;23.56;41.67
61641;HTU21D;62201;49.966;8.342;2023-07-13T08:21:37;23.73;41.80
61641;HTU21D;62201;49.966;8.342;2023-07-13T08:24:02;23.40;41.92
61641;HTU21D;62201;49.966;8.342;2023-07-13T08:26:28;23.41;41.62
61641;HTU21D;62201;49.966;8.342;2023-07-13T08:28:53;23.62;41.61
61641;HTU21D;62201;49.966;8.342;2023-07-13T08:31:19;23.82;41.41
61641;HTU21D;62201;49.966;8.342;2023-07-13T08:33:44;23.94;40.43
61641;HTU21D;62201;49.966;8.342;2023-07-13T08:36:10;24.04;40.46
61641;HTU21D;62201;49.966;8.342;2023-07-13T08:38:36;24.46;39.68
61641;HTU21D;62201;49.966;8.342;2023-07-13T08:41:10;24.79;39.42
61641;HTU21D;62201;49.966;8.342;2023-07-13T08:43:37;24.84;38.66
61641;HTU21D;62201;49.966;8.342;2023-07-13T08:46:13;25.04;38.69
61641;HTU21D;62201;49.966;8.342;2023-07-13T08:48:47;25.46;37.91
61641;HTU21D;62201;49.966;8.342;2023-07-13T08:51:45;25.54;38.45
61641;HTU21D;62201;49.966;8.342;2023-07-13T08:56:46;25.80;36.00
61641;HTU21D;62201;49.966;8.342;2023-07-13T08:59:17;25.71;35.50
61641;HTU21D;62201;49.966;8.342;2023-07-13T09:02:00;25.68;35.28
61641;HTU21D;62201;49.966;8.342;2023-07-13T09:04:36;25.67;35.02
61641;HTU21D;62201;49.966;8.342;2023-07-13T09:07:14;25.97;35.23
61641;HTU21D;62201;49.966;8.342;2023-07-13T09:09:50;26.32;33.87
61641;HTU21D;62201;49.966;8.342;2023-07-13T09:15:31;26.60;31.95
61641;HTU21D;62201;49.966;8.342;2023-07-13T09:21:08;27.43;31.91
61641;HTU21D;62201;49.966;8.342;2023-07-13T09:23:36;26.66;32.88
61641;HTU21D;62201;49.966;8.342;2023-07-13T09:26:10;26.87;31.92
61641;HTU21D;62201;49.966;8.342;2023-07-13T09:28:42;27.25;32.40
61641;HTU21D;62201;49.966;8.342;2023-07-13T09:31:16;27.53;31.92
61641;HTU21D;62201;49.966;8.342;2023-07-13T09:33:42;27.44;31.23
61641;HTU21D;62201;49.966;8.342;2023-07-13T09:36:18;27.05;32.12
61641;HTU21D;62201;49.966;8.342;2023-07-13T09:38:44;27.09;31.53
61641;HTU21D;62201;49.966;8.342;2023-07-13T09:41:31;27.00;31.80
61641;HTU21D;62201;49.966;8.342;2023-07-13T09:44:12;26.99;31.84
61641;HTU21D;62201;49.966;8.342;2023-07-13T09:46:39;26.58;32.75
61641;HTU21D;62201;49.966;8.342;2023-07-13T09:49:08;26.79;32.42
61641;HTU21D;62201;49.966;8.342;2023-07-13T09:51:34;26.52;32.67
61641;HTU21D;62201;49.966;8.342;2023-07-13T09:54:00;26.64;32.53
61641;HTU21D;62201;49.966;8.342;2023-07-13T09:56:28;27.19;31.79
61641;HTU21D;62201;49.966;8.342;2023-07-13T09:58:58;27.28;32.12
61641;HTU21D;62201;49.966;8.342;2023-07-13T10:01:38;28.03;30.21
61641;HTU21D;62201;49.966;8.342;2023-07-13T10:04:13;28.16;29.87
61641;HTU21D;62201;49.966;8.342;2023-07-13T10:06:40;28.29;30.55
61641;HTU21D;62201;49.966;8.342;2023-07-13T10:09:09;28.73;29.18
61641;HTU21D;62201;49.966;8.342;2023-07-13T10:11:36;28.32;28.94
61641;HTU21D;62201;49.966;8.342;2023-07-13T10:14:10;27.74;30.21
61641;HTU21D;62201;49.966;8.342;2023-07-13T10:16:38;27.37;31.39
61641;HTU21D;62201;49.966;8.342;2023-07-13T10:19:15;27.06;30.97
61641;HTU21D;62201;49.966;8.342;2023-07-13T10:21:56;27.12;30.94
61641;HTU21D;62201;49.966;8.342;2023-07-13T10:24:25;27.50;30.62
61641;HTU21D;62201;49.966;8.342;2023-07-13T10:27:01;27.54;30.71
61641;HTU21D;62201;49.966;8.342;2023-07-13T10:29:34;28.20;29.41
61641;HTU21D;62201;49.966;8.342;2023-07-13T10:32:01;28.53;28.77
61641;HTU21D;62201;49.966;8.342;2023-07-13T10:34:26;27.61;29.99
61641;HTU21D;62201;49.966;8.342;2023-07-13T10:36:52;27.38;30.92
61641;HTU21D;62201;49.966;8.342;2023-07-13T10:39:20;26.95;31.67
61641;HTU21D;62201;49.966;8.342;2023-07-13T10:41:52;26.98;30.72
61641;HTU21D;62201;49.966;8.342;2023-07-13T10:44:23;26.33;32.57
61641;HTU21D;62201;49.966;8.342;2023-07-13T10:46:53;27.04;31.35
61641;HTU21D;62201;49.966;8.342;2023-07-13T10:49:20;26.85;31.19
61641;HTU21D;62201;49.966;8.342;2023-07-13T10:51:46;26.80;31.73
61641;HTU21D;62201;49.966;8.342;2023-07-13T10:54:22;27.20;31.54
61641;HTU21D;62201;49.966;8.342;2023-07-13T10:57:17;27.78;30.67
61641;HTU21D;62201;49.966;8.342;2023-07-13T10:59:49;27.26;31.33
61641;HTU21D;62201;49.966;8.342;2023-07-13T11:02:34;26.70;31.51
61641;HTU21D;62201;49.966;8.342;2023-07-13T11:05:17;27.01;31.31
61641;HTU21D;62201;49.966;8.342;2023-07-13T11:07:54;27.25;31.48
61641;HTU21D;62201;49.966;8.342;2023-07-13T11:13:39;26.27;32.75
61641;HTU21D;62201;49.966;8.342;2023-07-13T11:18:49;26.51;32.57
61641;HTU21D;62201;49.966;8.342;2023-07-13T11:21:18;26.28;32.41
61641;HTU21D;62201;49.966;8.342;2023-07-13T11:23:45;26.83;31.77
61641;HTU21D;62201;49.966;8.342;2023-07-13T11:29:42;27.28;29.53
61641;HTU21D;62201;49.966;8.342;2023-07-13T11:32:30;27.41;30.12
61641;HTU21D;62201;49.966;8.342;2023-07-13T11:34:57;28.18;29.50
61641;HTU21D;62201;49.966;8.342;2023-07-13T11:37:23;28.13;29.05
61641;HTU21D;62201;49.966;8.342;2023-07-13T11:39:51;27.75;28.74
61641;HTU21D;62201;49.966;8.342;2023-07-13T11:42:18;27.65;29.03
61641;HTU21D;62201;49.966;8.342;2023-07-13T11:44:47;27.59;29.62
61641;HTU21D;62201;49.966;8.342;2023-07-13T11:47:21;26.62;30.89
61641;HTU21D;62201;49.966;8.342;2023-07-13T11:49:53;26.76;30.76
61641;HTU21D;62201;49.966;8.342;2023-07-13T11:52:32;27.30;30.10
61641;HTU21D;62201;49.966;8.342;2023-07-13T11:55:00;27.70;29.16
61641;HTU21D;62201;49.966;8.342;2023-07-13T11:57:32;27.53;29.46
61641;HTU21D;62201;49.966;8.342;2023-07-13T12:00:00;27.24;30.11
61641;HTU21D;62201;49.966;8.342;2023-07-13T12:02:32;26.89;30.87
61641;HTU21D;62201;49.966;8.342;2023-07-13T12:04:59;26.39;30.75
61641;HTU21D;62201;49.966;8.342;2023-07-13T12:07:29;26.84;30.66
61641;HTU21D;62201;49.966;8.342;2023-07-13T12:10:03;27.00;30.28
61641;HTU21D;62201;49.966;8.342;2023-07-13T12:12:29;27.04;30.40
61641;HTU21D;62201;49.966;8.342;2023-07-13T12:14:55;27.22;30.45
61641;HTU21D;62201;49.966;8.342;2023-07-13T12:17:23;26.95;30.90
61641;HTU21D;62201;49.966;8.342;2023-07-13T12:19:51;26.83;30.77
61641;HTU21D;62201;49.966;8.342;2023-07-13T12:22:18;26.54;31.77
61641;HTU21D;62201;49.966;8.342;2023-07-13T12:24:46;26.43;31.77
61641;HTU21D;62201;49.966;8.342;2023-07-13T12:27:23;26.46;31.80
61641;HTU21D;62201;49.966;8.342;2023-07-13T12:30:02;26.53;31.86
61641;HTU21D;62201;49.966;8.342;2023-07-13T12:32:28;26.37;32.45
61641;HTU21D;62201;49.966;8.342;2023-07-13T12:34:57;26.03;32.18
61641;HTU21D;62201;49.966;8.342;2023-07-13T12:37:28;26.11;32.04
61641;HTU21D;62201;49.966;8.342;2023-07-13T12:39:55;26.20;32.51
61641;HTU21D;62201;49.966;8.342;2023-07-13T12:42:24;26.26;32.73
61641;HTU21D;62201;49.966;8.342;2023-07-13T12:45:12;26.36;31.92
61641;HTU21D;62201;49.966;8.342;2023-07-13T12:47:41;26.57;31.84
61641;HTU21D;62201;49.966;8.342;2023-07-13T12:50:16;26.93;31.91
61641;HTU21D;62201;49.966;8.342;2023-07-13T12:52:43;26.94;32.33
61641;HTU21D;62201;49.966;8.342;2023-07-13T12:55:16;26.68;31.53
61641;HTU21D;62201;49.966;8.342;2023-07-13T12:57:54;26.67;30.54
61641;HTU21D;62201;49.966;8.342;2023-07-13T13:02:56;26.33;31.59
61641;HTU21D;62201;49.966;8.342;2023-07-13T13:05:22;26.24;31.83
61641;HTU21D;62201;49.966;8.342;2023-07-13T13:07:50;26.22;31.99
61641;HTU21D;62201;49.966;8.342;2023-07-13T13:10:15;26.26;31.70
61641;HTU21D;62201;49.966;8.342;2023-07-13T13:12:41;26.04;31.96
61641;HTU21D;62201;49.966;8.342;2023-07-13T13:15:10;26.13;32.35
61641;HTU21D;62201;49.966;8.342;2023-07-13T13:17:37;26.06;32.31
61641;HTU21D;62201;49.966;8.342;2023-07-13T13:20:17;25.91;32.11
61641;HTU21D;62201;49.966;8.342;2023-07-13T13:22:43;25.77;32.99
61641;HTU21D;62201;49.966;8.342;2023-07-13T13:25:12;25.81;32.51
61641;HTU21D;62201;49.966;8.342;2023-07-13T13:27:40;25.92;32.19
61641;HTU21D;62201;49.966;8.342;2023-07-13T13:30:14;26.18;31.85
61641;HTU21D;62201;49.966;8.342;2023-07-13T13:32:41;26.21;31.70
61641;HTU21D;62201;49.966;8.342;2023-07-13T13:35:18;26.08;32.55
61641;HTU21D;62201;49.966;8.342;2023-07-13T13:37:44;26.10;32.46
61641;HTU21D;62201;49.966;8.342;2023-07-13T13:40:19;25.80;33.39
61641;HTU21D;62201;49.966;8.342;2023-07-13T13:42:44;25.83;33.09
61641;HTU21D;62201;49.966;8.342;2023-07-13T13:45:10;25.86;33.53
61641;HTU21D;62201;49.966;8.342;2023-07-13T13:47:37;25.88;33.58
61641;HTU21D;62201;49.966;8.342;2023-07-13T13:50:12;26.07;32.10
61641;HTU21D;62201;49.966;8.342;2023-07-13T13:52:40;26.26;32.63
61641;HTU21D;62201;49.966;8.342;2023-07-13T13:55:13;26.64;32.25
61641;HTU21D;62201;49.966;8.342;2023-07-13T13:57:38;27.05;31.30
61641;HTU21D;62201;49.966;8.342;2023-07-13T14:00:04;27.07;30.92
61641;HTU21D;62201;49.966;8.342;2023-07-13T14:02:31;26.72;31.21
61641;HTU21D;62201;49.966;8.342;2023-07-13T14:04:59;26.64;31.50
61641;HTU21D;62201;49.966;8.342;2023-07-13T14:07:25;26.53;31.42
61641;HTU21D;62201;49.966;8.342;2023-07-13T14:09:56;26.68;31.84
61641;HTU21D;62201;49.966;8.342;2023-07-13T14:12:22;26.69;31.35
61641;HTU21D;62201;49.966;8.342;2023-07-13T14:14:48;26.81;30.92
61641;HTU21D;62201;49.966;8.342;2023-07-13T14:17:22;26.73;31.12
61641;HTU21D;62201;49.966;8.342;2023-07-13T14:19:50;26.53;32.09
61641;HTU21D;62201;49.966;8.342;2023-07-13T14:22:23;26.30;32.29
61641;HTU21D;62201;49.966;8.342;2023-07-13T14:24:50;26.34;32.51
61641;HTU21D;62201;49.966;8.342;2023-07-13T14:27:15;26.08;33.31
61641;HTU21D;62201;49.966;8.342;2023-07-13T14:29:40;25.78;34.08
61641;HTU21D;62201;49.966;8.342;2023-07-13T14:32:10;25.73;34.62
61641;HTU21D;62201;49.966;8.342;2023-07-13T14:34:35;25.61;34.60
61641;HTU21D;62201;49.966;8.342;2023-07-13T14:37:01;25.51;35.31
61641;HTU21D;62201;49.966;8.342;2023-07-13T14:39:26;25.38;34.65
61641;HTU21D;62201;49.966;8.342;2023-07-13T14:41:54;25.38;34.99
61641;HTU21D;62201;49.966;8.342;2023-07-13T14:44:22;25.45;34.54
61641;HTU21D;62201;49.966;8.342;2023-07-13T14:46:49;25.63;34.31
61641;HTU21D;62201;49.966;8.342;2023-07-13T14:49:30;25.80;34.28
61641;HTU21D;62201;49.966;8.342;2023-07-13T14:51:59;25.86;34.23
61641;HTU21D;62201;49.966;8.342;2023-07-13T14:54:26;25.81;33.85
61641;HTU21D;62201;49.966;8.342;2023-07-13T14:56:51;26.05;33.15
61641;HTU21D;62201;49.966;8.342;2023-07-13T14:59:17;26.02;33.00
61641;HTU21D;62201;49.966;8.342;2023-07-13T15:01:46;25.69;33.41
61641;HTU21D;62201;49.966;8.342;2023-07-13T15:04:12;25.66;34.42
61641;HTU21D;62201;49.966;8.342;2023-07-13T15:09:19;25.63;34.18
61641;HTU21D;62201;49.966;8.342;2023-07-13T15:11:45;25.65;33.88
61641;HTU21D;62201;49.966;8.342;2023-07-13T15:14:10;25.56;33.98
61641;HTU21D;62201;49.966;8.342;2023-07-13T15:16:35;25.61;34.14
61641;HTU21D;62201;49.966;8.342;2023-07-13T15:19:01;25.65;34.80
61641;HTU21D;62201;49.966;8.342;2023-07-13T15:21:28;25.61;34.89
61641;HTU21D;62201;49.966;8.342;2023-07-13T15:24:00;25.89;34.53
61641;HTU21D;62201;49.966;8.342;2023-07-13T15:26:26;25.88;33.79
61641;HTU21D;62201;49.966;8.342;2023-07-13T15:28:51;26.08;32.92
61641;HTU21D;62201;49.966;8.342;2023-07-13T15:31:24;26.34;32.82
61641;HTU21D;62201;49.966;8.342;2023-07-13T15:33:53;26.96;32.23
61641;HTU21D;62201;49.966;8.342;2023-07-13T15:36:19;27.64;29.95
61641;HTU21D;62201;49.966;8.342;2023-07-13T15:38:47;27.87;30.24
61641;HTU21D;62201;49.966;8.342;2023-07-13T15:43:51;27.84;29.53
61641;HTU21D;62201;49.966;8.342;2023-07-13T15:46:18;27.69;29.68
61641;HTU21D;62201;49.966;8.342;2023-07-13T15:48:45;27.69;29.55